createdAt,value
2018-11-23T00:01:35.709Z,43.20
2018-11-23T00:04:03.545Z,43.40
2018-11-23T00:06:31.379Z,43.40
2018-11-23T00:08:59.236Z,43.20
2018-11-23T00:11:27.076Z,43.30
2018-11-23T00:13:54.918Z,43.20
2018-11-23T00:16:23.317Z,43.30
2018-11-23T00:18:51.251Z,43.60
2018-11-23T00:21:19.096Z,43.40
2018-11-23T00:23:47.973Z,43.50
2018-11-23T00:26:16.223Z,43.30
2018-11-23T00:28:45.077Z,43.40
2018-11-23T00:31:12.937Z,44.10
2018-11-23T00:33:40.772Z,43.50
2018-11-23T00:36:09.644Z,43.30
2018-11-23T00:38:37.476Z,43.20
2018-11-23T00:41:05.445Z,43.80
2018-11-23T00:43:34.280Z,43.00
2018-11-23T00:46:02.155Z,42.80
2018-11-23T00:48:29.965Z,42.80
2018-11-23T00:50:58.811Z,42.90
2018-11-23T00:53:26.645Z,43.20
2018-11-23T00:55:54.479Z,42.90
2018-11-23T00:58:23.218Z,43.00
2018-11-23T01:00:51.985Z,43.00
2018-11-23T01:03:20.730Z,43.00
2018-11-23T01:05:48.608Z,43.10
2018-11-23T01:08:17.244Z,43.30
2018-11-23T01:10:46.650Z,43.40
2018-11-23T01:13:16.066Z,43.30
2018-11-23T01:15:43.922Z,43.20
2018-11-23T01:18:12.819Z,43.20
2018-11-23T01:20:41.661Z,43.30
2018-11-23T01:23:10.388Z,43.40
2018-11-23T01:25:39.110Z,43.50
2018-11-23T01:28:06.926Z,43.50
2018-11-23T01:30:35.639Z,43.50
2018-11-23T01:33:03.477Z,43.50
2018-11-23T01:35:31.307Z,43.50
2018-11-23T01:37:59.192Z,43.60
2018-11-23T01:40:29.510Z,43.70
2018-11-23T01:42:57.805Z,43.80
2018-11-23T01:45:25.761Z,43.60
2018-11-23T01:47:53.710Z,43.70
2018-11-23T01:50:23.067Z,43.80
2018-11-23T01:52:51.455Z,43.70
2018-11-23T01:55:20.179Z,43.80
2018-11-23T01:57:49.054Z,44.10
2018-11-23T02:00:19.999Z,44.00
2018-11-23T02:02:48.477Z,44.10
2018-11-23T02:05:16.428Z,44.00
2018-11-23T02:07:45.805Z,44.50
2018-11-23T02:10:16.625Z,44.00
2018-11-23T02:12:46.081Z,44.00
2018-11-23T02:15:16.671Z,44.10
2018-11-23T02:17:46.620Z,44.10
2018-11-23T02:20:16.910Z,44.00
2018-11-23T02:22:45.218Z,44.10
2018-11-23T02:25:13.054Z,44.20
2018-11-23T02:27:41.770Z,44.20
2018-11-23T02:30:12.368Z,44.20
2018-11-23T02:32:40.349Z,44.20
2018-11-23T02:35:09.081Z,44.00
2018-11-23T02:37:36.944Z,44.20
2018-11-23T02:40:06.263Z,44.20
2018-11-23T02:42:35.050Z,44.40
2018-11-23T02:45:03.792Z,44.30
2018-11-23T02:47:32.663Z,44.00
2018-11-23T02:50:01.383Z,44.00
2018-11-23T02:52:29.263Z,43.80
2018-11-23T02:54:57.996Z,43.60
2018-11-23T02:57:25.970Z,43.50
2018-11-23T02:59:53.802Z,43.70
2018-11-23T03:02:22.651Z,44.00
2018-11-23T03:04:51.326Z,43.90
2018-11-23T03:07:19.170Z,43.90
2018-11-23T03:09:48.923Z,43.80
2018-11-23T03:12:17.617Z,43.80
2018-11-23T03:14:46.787Z,43.80
2018-11-23T03:20:28.798Z,44.00
2018-11-23T03:22:57.759Z,44.00
2018-11-23T03:25:26.514Z,44.00
2018-11-23T03:27:54.785Z,44.00
2018-11-23T03:30:23.632Z,44.10
2018-11-23T03:32:53.177Z,44.20
2018-11-23T03:35:22.700Z,44.20
2018-11-23T03:37:50.736Z,45.10
2018-11-23T03:40:19.626Z,44.30
2018-11-23T03:43:26.365Z,44.30
2018-11-23T03:45:54.242Z,44.20
2018-11-23T03:48:23.065Z,44.40
2018-11-23T03:50:51.823Z,44.40
2018-11-23T03:56:09.797Z,44.70
2018-11-23T03:58:37.669Z,44.60
2018-11-23T04:01:06.431Z,45.30
2018-11-23T04:03:35.169Z,44.50
2018-11-23T04:06:03.885Z,44.60
2018-11-23T04:08:31.720Z,44.60
2018-11-23T04:11:00.453Z,44.60
2018-11-23T04:13:28.354Z,44.60
2018-11-23T04:15:56.343Z,44.60
2018-11-23T04:18:25.242Z,44.60
2018-11-23T04:21:00.759Z,45.40
2018-11-23T04:23:30.621Z,44.80
2018-11-23T04:25:59.470Z,44.80
2018-11-23T04:28:28.263Z,44.60
2018-11-23T04:30:56.386Z,44.70
2018-11-23T04:33:25.836Z,44.70
2018-11-23T04:35:54.781Z,44.70
2018-11-23T04:38:23.693Z,44.80
2018-11-23T04:40:51.584Z,44.90
2018-11-23T04:43:19.450Z,44.60
2018-11-23T04:45:48.355Z,44.60
2018-11-23T04:48:17.318Z,44.60
2018-11-23T04:50:46.834Z,44.80
2018-11-23T04:53:16.104Z,44.90
2018-11-23T04:55:45.189Z,44.80
2018-11-23T04:58:13.009Z,44.50
2018-11-23T05:00:41.757Z,44.40
2018-11-23T05:03:10.494Z,44.10
2018-11-23T05:05:39.424Z,44.00
2018-11-23T05:08:08.394Z,44.00
2018-11-23T05:10:36.167Z,44.00
2018-11-23T05:13:04.965Z,44.30
2018-11-23T05:15:33.663Z,44.20
2018-11-23T05:18:02.549Z,44.10
2018-11-23T05:20:30.369Z,44.10
2018-11-23T05:22:59.109Z,44.20
2018-11-23T05:25:27.368Z,44.30
2018-11-23T05:27:55.240Z,44.30
2018-11-23T05:30:23.124Z,44.40
2018-11-23T05:32:51.882Z,44.40
2018-11-23T05:35:19.887Z,45.00
2018-11-23T05:37:48.292Z,44.30
2018-11-23T05:40:17.426Z,44.40
2018-11-23T05:42:46.183Z,44.40
2018-11-23T05:45:16.122Z,44.70
2018-11-23T05:47:44.121Z,44.70
2018-11-23T05:50:26.968Z,44.60
2018-11-23T05:52:54.813Z,44.60
2018-11-23T05:55:22.659Z,44.70
2018-11-23T05:57:50.896Z,44.70
2018-11-23T06:00:26.181Z,44.80
2018-11-23T06:02:54.039Z,45.00
2018-11-23T06:05:21.872Z,45.00
2018-11-23T06:07:49.706Z,44.80
2018-11-23T06:10:18.817Z,44.90
2018-11-23T06:12:47.510Z,44.80
2018-11-23T06:15:17.483Z,44.90
2018-11-23T06:17:47.128Z,45.00
2018-11-23T06:20:17.427Z,45.70
2018-11-23T06:22:46.631Z,44.90
2018-11-23T06:25:17.561Z,44.80
2018-11-23T06:27:47.312Z,44.90
2018-11-23T06:30:15.870Z,44.90
2018-11-23T06:32:49.550Z,45.00
2018-11-23T06:35:17.472Z,45.10
2018-11-23T06:37:46.743Z,44.90
2018-11-23T06:40:15.457Z,45.00
2018-11-23T06:42:43.260Z,45.00
2018-11-23T06:45:12.069Z,44.60
2018-11-23T06:47:40.093Z,44.60
2018-11-23T06:50:09.531Z,44.50
2018-11-23T06:52:38.528Z,44.30
2018-11-23T06:55:07.535Z,44.30
2018-11-23T06:57:35.419Z,44.10
2018-11-23T07:00:03.280Z,44.10
2018-11-23T07:02:31.116Z,44.20
2018-11-23T07:04:58.939Z,44.10
2018-11-23T07:07:27.731Z,44.10
2018-11-23T07:09:55.699Z,44.30
2018-11-23T07:12:23.529Z,44.40
2018-11-23T07:14:52.153Z,44.50
2018-11-23T07:17:20.995Z,44.50
2018-11-23T07:19:49.851Z,44.30
2018-11-23T07:22:18.582Z,44.40
2018-11-23T07:24:47.006Z,44.50
2018-11-23T07:27:15.309Z,44.60
2018-11-23T07:29:43.143Z,44.50
2018-11-23T07:32:12.012Z,44.70
2018-11-23T07:34:40.762Z,44.60
2018-11-23T07:37:08.628Z,44.50
2018-11-23T07:39:41.991Z,44.60
2018-11-23T07:42:17.881Z,44.80
2018-11-23T07:44:47.378Z,45.00
2018-11-23T07:47:16.421Z,45.00
2018-11-23T07:49:44.369Z,45.00
2018-11-23T07:52:13.218Z,45.10
2018-11-23T07:54:41.958Z,45.10
2018-11-23T07:57:10.282Z,45.70
2018-11-23T07:59:38.219Z,45.20
2018-11-23T08:02:06.545Z,45.40
2018-11-23T08:04:34.451Z,45.30
2018-11-23T08:07:02.299Z,45.30
2018-11-23T08:09:30.126Z,45.40
2018-11-23T08:11:58.051Z,45.40
2018-11-23T08:14:25.894Z,45.50
2018-11-23T08:16:54.742Z,45.70
2018-11-23T08:19:22.600Z,45.50
2018-11-23T08:21:50.441Z,45.60
2018-11-23T08:24:18.375Z,45.60
2018-11-23T08:26:47.480Z,45.60
2018-11-23T08:29:17.058Z,45.60
2018-11-23T08:31:44.974Z,45.60
2018-11-23T08:34:13.820Z,45.40
2018-11-23T08:36:41.728Z,45.30
2018-11-23T08:39:11.195Z,45.10
2018-11-23T08:41:39.567Z,44.90
2018-11-23T08:44:07.748Z,44.80
2018-11-23T08:46:36.606Z,44.90
2018-11-23T08:49:05.397Z,45.00
2018-11-23T08:51:34.334Z,45.00
2018-11-23T08:54:03.181Z,44.90
2018-11-23T08:56:31.113Z,45.00
2018-11-23T08:58:59.948Z,45.10
2018-11-23T09:01:28.670Z,45.20
2018-11-23T09:03:56.497Z,45.30
2018-11-23T09:06:24.303Z,45.30
2018-11-23T09:08:52.679Z,45.30
2018-11-23T09:11:20.545Z,45.30
2018-11-23T09:13:49.363Z,45.30
2018-11-23T09:16:17.562Z,45.40
2018-11-23T09:18:46.022Z,45.50
2018-11-23T09:21:14.052Z,45.60
2018-11-23T09:23:41.882Z,45.50
2018-11-23T09:26:10.804Z,45.40
2018-11-23T09:28:38.679Z,45.50
2018-11-23T09:31:06.556Z,45.50
2018-11-23T09:33:34.422Z,45.50
2018-11-23T09:36:02.325Z,45.60
2018-11-23T09:38:30.199Z,45.60
2018-11-23T09:40:58.060Z,45.80
2018-11-23T09:43:26.077Z,45.80
2018-11-23T09:45:54.047Z,45.40
2018-11-23T09:48:21.924Z,45.30
2018-11-23T09:50:50.663Z,45.10
2018-11-23T09:53:18.534Z,45.00
2018-11-23T09:55:47.789Z,45.00
2018-11-23T09:58:16.282Z,45.10
2018-11-23T10:00:44.253Z,45.20
2018-11-23T10:03:12.172Z,45.10
2018-11-23T10:05:41.150Z,45.20
2018-11-23T10:08:09.045Z,45.30
2018-11-23T10:10:37.542Z,45.40
2018-11-23T10:13:05.583Z,45.40
2018-11-23T10:15:33.883Z,45.50
2018-11-23T10:18:02.353Z,45.40
2018-11-23T10:20:31.572Z,45.40
2018-11-23T10:22:59.449Z,45.50
2018-11-23T10:25:29.578Z,45.50
2018-11-23T10:27:57.639Z,45.70
2018-11-23T10:30:26.885Z,45.60
2018-11-23T10:32:56.104Z,45.60
2018-11-23T10:35:24.134Z,45.60
2018-11-23T10:37:53.555Z,45.60
2018-11-23T10:40:22.718Z,46.10
2018-11-23T10:42:50.650Z,45.80
2018-11-23T10:45:20.039Z,45.80
2018-11-23T10:47:48.390Z,45.70
2018-11-23T10:50:18.654Z,45.80
2018-11-23T10:52:47.134Z,45.80
2018-11-23T10:55:16.662Z,45.80
2018-11-23T10:57:47.265Z,46.00
2018-11-23T11:00:21.375Z,46.00
2018-11-23T11:02:55.151Z,46.00
2018-11-23T11:05:29.077Z,46.00
2018-11-23T11:07:58.523Z,46.00
2018-11-23T11:10:26.448Z,46.10
2018-11-23T11:12:55.342Z,46.20
2018-11-23T11:15:23.460Z,46.20
2018-11-23T11:17:51.525Z,46.10
2018-11-23T11:20:19.845Z,46.10
2018-11-23T11:22:48.616Z,46.30
2018-11-23T11:25:17.341Z,46.30
2018-11-23T11:27:46.144Z,46.20
2018-11-23T11:30:16.342Z,46.10
2018-11-23T11:32:45.298Z,45.90
2018-11-23T11:35:13.753Z,46.40
2018-11-23T11:37:42.082Z,45.70
2018-11-23T11:40:11.444Z,45.70
2018-11-23T11:42:40.704Z,45.90
2018-11-23T11:45:10.880Z,45.90
2018-11-23T11:47:38.920Z,45.80
2018-11-23T11:50:08.187Z,45.80
2018-11-23T11:52:58.437Z,45.90
2018-11-23T11:55:26.385Z,46.00
2018-11-23T11:57:54.406Z,46.70
2018-11-23T12:00:24.433Z,46.00
2018-11-23T12:02:52.700Z,46.00
2018-11-23T12:05:20.532Z,46.00
2018-11-23T12:07:48.434Z,46.10
2018-11-23T12:10:18.989Z,46.20
2018-11-23T12:12:47.330Z,47.00
2018-11-23T12:15:16.360Z,46.30
2018-11-23T12:17:45.874Z,46.30
2018-11-23T12:20:16.293Z,46.30
2018-11-23T12:22:45.246Z,46.30
2018-11-23T12:25:13.158Z,46.40
2018-11-23T12:27:41.942Z,46.50
2018-11-23T12:30:12.340Z,46.50
2018-11-23T12:32:40.694Z,46.40
2018-11-23T12:35:09.500Z,46.40
2018-11-23T12:37:37.462Z,46.40
2018-11-23T12:40:06.004Z,47.20
2018-11-23T12:42:33.980Z,47.40
2018-11-23T12:45:02.840Z,47.10
2018-11-23T12:47:30.736Z,46.90
2018-11-23T12:49:58.579Z,47.00
2018-11-23T12:52:26.457Z,46.80
2018-11-23T12:54:55.437Z,46.80
2018-11-23T12:57:23.281Z,48.10
2018-11-23T12:59:52.031Z,47.50
2018-11-23T13:02:19.926Z,47.10
2018-11-23T13:04:47.833Z,46.70
2018-11-23T13:07:17.141Z,46.90
2018-11-23T13:09:44.999Z,46.80
2018-11-23T13:12:12.844Z,47.10
2018-11-23T13:14:40.670Z,46.70
2018-11-23T13:17:09.399Z,46.40
2018-11-23T13:19:37.229Z,46.40
2018-11-23T13:22:05.107Z,46.30
2018-11-23T13:24:33.983Z,46.40
2018-11-23T13:27:01.875Z,46.40
2018-11-23T13:29:30.736Z,46.60
2018-11-23T13:32:00.218Z,46.60
2018-11-23T13:34:27.339Z,46.80
2018-11-23T13:36:55.144Z,46.90
2018-11-23T13:39:22.971Z,46.80
2018-11-23T13:41:51.061Z,46.90
2018-11-23T13:44:19.782Z,46.90
2018-11-23T13:46:47.658Z,47.00
2018-11-23T13:49:17.404Z,47.00
2018-11-23T13:51:46.764Z,47.60
2018-11-23T13:54:14.594Z,48.60
2018-11-23T13:56:43.427Z,48.40
2018-11-23T13:59:12.115Z,48.70
2018-11-23T14:01:39.957Z,48.90
2018-11-23T14:04:07.795Z,47.90
2018-11-23T14:06:35.656Z,48.10
2018-11-23T14:09:03.873Z,47.70
2018-11-23T14:11:32.712Z,47.40
2018-11-23T14:14:01.421Z,47.40
2018-11-23T14:16:29.402Z,47.30
2018-11-23T14:18:57.538Z,47.30
2018-11-23T14:21:25.562Z,47.50
2018-11-23T14:23:53.408Z,47.70
2018-11-23T14:26:21.777Z,47.30
2018-11-23T14:28:49.638Z,47.40
2018-11-23T14:31:17.517Z,47.20
2018-11-23T14:33:46.291Z,47.20
2018-11-23T14:36:16.001Z,47.00
2018-11-23T14:38:43.829Z,47.00
2018-11-23T14:41:11.684Z,47.00
2018-11-23T14:43:39.880Z,47.00
2018-11-23T14:46:07.724Z,46.90
2018-11-23T14:48:35.606Z,46.80
2018-11-23T14:51:04.483Z,46.70
2018-11-23T14:53:33.373Z,46.60
2018-11-23T14:56:02.083Z,46.50
2018-11-23T14:58:29.923Z,46.40
2018-11-23T15:00:57.745Z,46.50
2018-11-23T15:03:25.592Z,46.50
2018-11-23T15:05:54.529Z,46.40
2018-11-23T15:08:22.379Z,46.50
2018-11-23T15:10:50.260Z,46.50
2018-11-23T15:13:18.147Z,46.60
2018-11-23T15:15:47.097Z,46.90
2018-11-23T15:18:16.048Z,46.90
2018-11-23T15:20:45.196Z,46.70
2018-11-23T15:23:15.202Z,46.70
2018-11-23T15:25:43.165Z,46.70
2018-11-23T15:28:11.465Z,46.80
2018-11-23T15:30:40.303Z,47.00
2018-11-23T15:33:09.102Z,47.70
2018-11-23T15:35:38.388Z,47.00
2018-11-23T15:38:10.296Z,47.00
2018-11-23T15:40:36.291Z,46.90
2018-11-23T15:43:06.509Z,47.10
2018-11-23T15:45:35.142Z,47.10
2018-11-23T15:48:03.983Z,47.10
2018-11-23T15:50:36.047Z,47.20
2018-11-23T15:53:05.462Z,47.50
2018-11-23T15:55:34.848Z,47.00
2018-11-23T15:58:05.212Z,47.10
2018-11-23T16:00:35.309Z,47.30
2018-11-23T16:03:04.588Z,47.30
2018-11-23T16:05:33.323Z,47.10
2018-11-23T16:08:02.259Z,47.10
2018-11-23T16:10:33.277Z,47.30
2018-11-23T16:13:02.239Z,47.20
2018-11-23T16:15:30.579Z,47.10
2018-11-23T16:17:58.839Z,47.30
2018-11-23T16:20:28.619Z,47.20
2018-11-23T16:22:57.953Z,47.00
2018-11-23T16:25:26.487Z,46.80
2018-11-23T16:27:57.468Z,46.80
2018-11-23T16:30:28.764Z,46.90
2018-11-23T16:32:57.668Z,46.80
2018-11-23T16:35:31.198Z,46.80
2018-11-23T16:38:01.853Z,46.90
2018-11-23T16:40:31.088Z,47.00
2018-11-23T16:42:59.838Z,47.10
2018-11-23T16:45:30.103Z,47.30
2018-11-23T16:47:59.202Z,47.30
2018-11-23T16:50:27.512Z,47.10
2018-11-23T16:52:57.710Z,47.20
2018-11-23T16:55:25.853Z,47.30
2018-11-23T16:57:56.505Z,47.10
2018-11-23T17:00:26.626Z,47.40
2018-11-23T17:02:55.744Z,47.30
2018-11-23T17:05:27.080Z,47.30
2018-11-23T17:07:56.146Z,47.20
2018-11-23T17:10:25.733Z,47.30
2018-11-23T17:12:54.299Z,47.30
2018-11-23T17:15:24.787Z,47.50
2018-11-23T17:17:52.954Z,47.50
2018-11-23T17:20:23.328Z,47.50
2018-11-23T17:22:52.741Z,47.60
2018-11-23T17:25:21.622Z,47.50
2018-11-23T17:27:51.362Z,47.50
2018-11-23T17:30:21.663Z,47.30
2018-11-23T17:32:49.638Z,47.50
2018-11-23T17:35:18.359Z,47.60
2018-11-23T17:37:47.031Z,47.50
2018-11-23T17:40:17.453Z,47.50
2018-11-23T17:42:47.597Z,47.40
2018-11-23T17:45:19.629Z,47.60
2018-11-23T17:47:47.683Z,47.60
2018-11-23T17:50:19.460Z,47.40
2018-11-23T17:52:47.718Z,47.70
2018-11-23T17:55:15.992Z,47.70
2018-11-23T17:57:45.657Z,47.80
2018-11-23T18:00:16.788Z,47.50
2018-11-23T18:02:46.506Z,47.40
2018-11-23T18:05:15.619Z,47.40
2018-11-23T18:07:43.533Z,47.30
2018-11-23T18:10:15.826Z,47.30
2018-11-23T18:12:44.039Z,47.30
2018-11-23T18:15:16.938Z,47.40
2018-11-23T18:17:46.042Z,47.50
2018-11-23T18:20:15.625Z,47.50
2018-11-23T18:22:43.956Z,47.40
2018-11-23T18:25:14.476Z,47.70
2018-11-23T18:27:43.184Z,47.70
2018-11-23T18:30:11.405Z,47.60
2018-11-23T18:32:39.466Z,47.70
2018-11-23T18:35:09.394Z,47.80
2018-11-23T18:37:37.441Z,47.50
2018-11-23T18:40:11.044Z,47.60
2018-11-23T18:42:39.957Z,47.80
2018-11-23T18:45:10.441Z,47.60
2018-11-23T18:47:39.858Z,47.80
2018-11-23T18:50:08.610Z,47.70
2018-11-23T18:52:36.616Z,47.90
2018-11-23T18:55:04.450Z,47.90
2018-11-23T18:57:33.364Z,47.90
2018-11-23T19:00:02.751Z,47.90
2018-11-23T19:02:32.017Z,47.80
2018-11-23T19:05:03.172Z,47.80
2018-11-23T19:07:32.424Z,48.00
2018-11-23T19:10:03.420Z,48.00
2018-11-23T19:12:31.824Z,48.00
2018-11-23T19:15:00.051Z,47.90
2018-11-23T19:17:28.058Z,48.00
2018-11-23T19:19:57.231Z,48.00
2018-11-23T19:22:28.556Z,48.10
2018-11-23T19:24:57.339Z,48.00
2018-11-23T19:27:26.510Z,48.10
2018-11-23T19:29:55.460Z,48.00
2018-11-23T19:32:25.530Z,47.90
2018-11-23T19:34:53.428Z,47.90
2018-11-23T19:37:21.386Z,48.00
2018-11-23T19:39:49.318Z,47.80
2018-11-23T19:42:17.834Z,47.60
2018-11-23T19:44:46.377Z,47.50
2018-11-23T19:47:14.536Z,47.50
2018-11-23T19:49:43.479Z,47.40
2018-11-23T19:52:12.447Z,47.50
2018-11-23T19:54:40.457Z,47.50
2018-11-23T19:57:08.459Z,47.50
2018-11-23T19:59:36.314Z,47.50
2018-11-23T20:02:05.035Z,48.20
2018-11-23T20:04:33.845Z,47.70
2018-11-23T20:07:01.962Z,47.80
2018-11-23T20:09:29.895Z,47.60
2018-11-23T20:11:57.874Z,47.60
2018-11-23T20:14:26.826Z,47.70
2018-11-23T20:16:54.903Z,47.70
2018-11-23T20:19:22.785Z,47.70
2018-11-23T20:21:50.651Z,47.70
2018-11-23T20:24:18.489Z,47.80
2018-11-23T20:26:47.724Z,47.80
2018-11-23T20:29:16.619Z,47.80
2018-11-23T20:31:46.386Z,47.80
2018-11-23T20:34:15.855Z,47.80
2018-11-23T20:36:43.708Z,47.60
2018-11-23T20:39:12.547Z,47.70
2018-11-23T20:41:41.320Z,47.80
2018-11-23T20:44:09.202Z,47.80
2018-11-23T20:46:37.076Z,48.00
2018-11-23T20:49:04.955Z,47.70
2018-11-23T20:51:32.835Z,47.70
2018-11-23T20:54:00.702Z,47.70
2018-11-23T20:56:28.578Z,47.80
2018-11-23T20:58:56.408Z,47.80
2018-11-23T21:01:24.241Z,47.70
2018-11-23T21:03:52.075Z,47.80
2018-11-23T21:06:20.024Z,47.80
2018-11-23T21:08:49.114Z,47.60
2018-11-23T21:11:17.930Z,47.60
2018-11-23T21:13:47.363Z,47.80
2018-11-23T21:16:17.118Z,47.80
2018-11-23T21:18:47.374Z,47.60
2018-11-23T21:21:16.502Z,47.60
2018-11-23T21:23:45.623Z,47.60
2018-11-23T21:26:13.487Z,48.10
2018-11-23T21:28:41.443Z,47.70
2018-11-23T21:31:09.280Z,47.80
2018-11-23T21:33:37.123Z,47.70
2018-11-23T21:36:04.996Z,47.80
2018-11-23T21:38:32.845Z,47.60
2018-11-23T21:41:00.678Z,47.50
2018-11-23T21:43:28.640Z,47.40
2018-11-23T21:45:57.394Z,47.20
2018-11-23T21:48:25.369Z,47.00
2018-11-23T21:50:53.222Z,47.20
2018-11-23T21:53:22.072Z,47.30
2018-11-23T21:55:49.909Z,47.60
2018-11-23T21:58:17.740Z,47.40
2018-11-23T22:00:46.906Z,47.40
2018-11-23T22:03:16.302Z,47.30
2018-11-23T22:05:44.257Z,47.20
2018-11-23T22:08:12.108Z,47.20
2018-11-23T22:10:39.935Z,47.30
2018-11-23T22:13:07.932Z,47.30
2018-11-23T22:15:35.784Z,47.40
2018-11-23T22:18:04.637Z,47.40
2018-11-23T22:20:32.485Z,47.20
2018-11-23T22:23:01.406Z,47.20
2018-11-23T22:25:29.397Z,47.30
2018-11-23T22:27:57.235Z,47.20
2018-11-23T22:30:26.114Z,47.20
2018-11-23T22:32:53.983Z,47.40
2018-11-23T22:35:21.903Z,47.40
2018-11-23T22:37:49.879Z,47.30
2018-11-23T22:40:18.356Z,47.30
2018-11-23T22:42:49.849Z,47.30
2018-11-23T22:45:18.343Z,47.30
2018-11-23T22:47:48.077Z,47.40
2018-11-23T22:50:17.370Z,47.40
2018-11-23T22:52:46.073Z,47.30
2018-11-23T22:55:16.069Z,47.90
2018-11-23T22:57:43.988Z,47.30
2018-11-23T23:00:18.964Z,47.30
2018-11-23T23:02:47.009Z,47.30
2018-11-23T23:05:15.291Z,47.30
2018-11-23T23:07:43.127Z,47.20
2018-11-23T23:10:11.137Z,47.20
2018-11-23T23:12:39.060Z,47.30
2018-11-23T23:15:08.113Z,47.30
2018-11-23T23:17:35.944Z,47.30
2018-11-23T23:20:04.184Z,47.30
2018-11-23T23:22:33.022Z,47.30
2018-11-23T23:25:00.866Z,47.30
2018-11-23T23:27:28.705Z,47.20
2018-11-23T23:29:57.471Z,47.20
2018-11-23T23:32:25.296Z,47.40
2018-11-23T23:34:53.127Z,47.40
2018-11-23T23:37:21.821Z,47.30
2018-11-23T23:39:49.640Z,47.20
2018-11-23T23:42:17.470Z,47.20
2018-11-23T23:44:46.022Z,47.00
2018-11-23T23:47:13.846Z,47.60
2018-11-23T23:49:41.688Z,46.80
2018-11-23T23:52:09.510Z,46.70
2018-11-23T23:54:37.361Z,46.50
2018-11-23T23:57:05.227Z,46.50
2018-11-23T23:59:33.049Z,46.40
